createdAt,value
2018-12-26T00:00:26.062Z,3.40
2018-12-26T00:01:26.068Z,3.40
2018-12-26T00:02:26.036Z,3.60
2018-12-26T00:03:26.024Z,3.40
2018-12-26T00:04:26.044Z,3.60
2018-12-26T00:05:26.086Z,3.90
2018-12-26T00:06:25.995Z,3.70
2018-12-26T00:07:25.988Z,3.60
2018-12-26T00:08:25.975Z,3.40
2018-12-26T00:09:25.959Z,3.60
2018-12-26T00:10:25.951Z,4.00
2018-12-26T00:11:25.948Z,3.90
2018-12-26T00:12:25.931Z,3.70
2018-12-26T00:13:25.916Z,3.70
2018-12-26T00:14:25.910Z,3.40
2018-12-26T00:15:25.898Z,3.50
2018-12-26T00:16:25.895Z,3.70
2018-12-26T00:17:25.889Z,4.10
2018-12-26T00:18:26.015Z,4.10
2018-12-26T00:19:25.847Z,3.90
2018-12-26T00:20:27.331Z,3.70
2018-12-26T00:21:25.842Z,4.00
2018-12-26T00:22:25.829Z,3.70
2018-12-26T00:23:25.815Z,4.00
2018-12-26T00:24:25.805Z,3.50
2018-12-26T00:25:25.798Z,3.60
2018-12-26T00:26:25.781Z,4.20
2018-12-26T00:27:25.772Z,4.00
2018-12-26T00:28:25.760Z,3.90
2018-12-26T00:29:25.751Z,4.00
2018-12-26T00:30:25.746Z,4.20
2018-12-26T00:31:25.729Z,4.00
2018-12-26T00:32:25.717Z,4.10
2018-12-26T00:33:25.701Z,3.60
2018-12-26T00:34:25.704Z,3.80
2018-12-26T00:35:25.691Z,4.00
2018-12-26T00:36:25.690Z,4.00
2018-12-26T00:37:25.664Z,3.70
2018-12-26T00:38:25.656Z,3.90
2018-12-26T00:39:25.654Z,4.00
2018-12-26T00:40:25.639Z,4.40
2018-12-26T00:41:25.630Z,4.30
2018-12-26T00:42:25.608Z,4.30
2018-12-26T00:43:25.601Z,4.50
2018-12-26T00:44:25.668Z,3.80
2018-12-26T00:45:25.575Z,4.10
2018-12-26T00:46:25.566Z,4.20
2018-12-26T00:47:25.566Z,4.60
2018-12-26T00:48:25.566Z,3.90
2018-12-26T00:49:25.539Z,4.00
2018-12-26T00:50:25.525Z,3.80
2018-12-26T00:51:25.517Z,4.10
2018-12-26T00:52:25.506Z,4.20
2018-12-26T00:53:25.512Z,4.00
2018-12-26T00:54:25.485Z,4.10
2018-12-26T00:55:25.473Z,4.10
2018-12-26T00:56:25.460Z,4.30
2018-12-26T00:57:25.450Z,4.70
2018-12-26T00:58:25.440Z,4.40
2018-12-26T00:59:25.442Z,4.70
2018-12-26T01:00:25.424Z,4.30
2018-12-26T01:01:25.420Z,3.90
2018-12-26T01:02:25.398Z,3.90
2018-12-26T01:03:25.413Z,4.00
2018-12-26T01:04:25.397Z,4.70
2018-12-26T01:05:25.369Z,4.10
2018-12-26T01:06:25.359Z,4.20
2018-12-26T01:07:25.341Z,4.40
2018-12-26T01:08:25.334Z,4.10
2018-12-26T01:09:25.369Z,4.20
2018-12-26T01:10:25.309Z,4.00
2018-12-26T01:11:25.313Z,4.00
2018-12-26T01:12:25.353Z,4.20
2018-12-26T01:13:25.284Z,4.20
2018-12-26T01:14:25.269Z,4.30
2018-12-26T01:15:25.264Z,4.30
2018-12-26T01:16:25.280Z,4.30
2018-12-26T01:17:25.257Z,3.70
2018-12-26T01:18:25.226Z,4.20
2018-12-26T01:19:25.215Z,4.00
2018-12-26T01:20:25.211Z,3.90
2018-12-26T01:21:25.198Z,4.20
2018-12-26T01:22:25.189Z,4.20
2018-12-26T01:23:25.196Z,4.50
2018-12-26T01:24:25.166Z,3.80
2018-12-26T01:25:25.155Z,4.20
2018-12-26T01:26:25.141Z,4.10
2018-12-26T01:27:25.142Z,4.00
2018-12-26T01:28:25.132Z,4.10
2018-12-26T01:29:25.122Z,4.10
2018-12-26T01:30:25.105Z,4.10
2018-12-26T01:31:25.086Z,4.00
2018-12-26T01:32:25.080Z,3.90
2018-12-26T01:33:25.076Z,3.90
2018-12-26T01:34:25.064Z,3.80
2018-12-26T01:35:25.052Z,4.10
2018-12-26T01:36:25.034Z,4.00
2018-12-26T01:37:25.030Z,4.10
2018-12-26T01:38:25.016Z,4.00
2018-12-26T01:39:25.041Z,4.00
2018-12-26T01:40:24.996Z,3.60
2018-12-26T01:41:24.993Z,3.80
2018-12-26T01:42:24.974Z,3.90
2018-12-26T01:43:24.962Z,4.00
2018-12-26T01:44:24.965Z,4.30
2018-12-26T01:45:24.994Z,4.00
2018-12-26T01:46:24.937Z,4.10
2018-12-26T01:47:24.930Z,4.20
2018-12-26T01:48:24.906Z,3.90
2018-12-26T01:49:24.907Z,4.10
2018-12-26T01:50:24.891Z,4.10
2018-12-26T01:51:24.884Z,3.80
2018-12-26T01:52:24.878Z,3.70
2018-12-26T01:53:24.858Z,3.80
2018-12-26T01:54:24.845Z,3.70
2018-12-26T01:55:24.837Z,4.00
2018-12-26T01:56:28.103Z,3.90
2018-12-26T01:57:24.812Z,3.80
2018-12-26T01:58:24.804Z,4.30
2018-12-26T01:59:24.790Z,3.90
2018-12-26T02:00:24.783Z,4.00
2018-12-26T02:01:24.769Z,4.00
2018-12-26T02:02:24.780Z,3.90
2018-12-26T02:03:24.748Z,4.10
2018-12-26T02:04:24.739Z,4.10
2018-12-26T02:05:24.734Z,4.20
2018-12-26T02:06:24.766Z,4.30
2018-12-26T02:07:24.711Z,4.40
2018-12-26T02:08:24.698Z,4.20
2018-12-26T02:09:24.688Z,4.30
2018-12-26T02:10:24.674Z,4.10
2018-12-26T02:11:24.664Z,4.40
2018-12-26T02:12:24.657Z,4.80
2018-12-26T02:13:24.646Z,4.30
2018-12-26T02:14:24.632Z,4.80
2018-12-26T02:15:24.630Z,4.50
2018-12-26T02:16:24.613Z,4.60
2018-12-26T02:17:24.597Z,4.60
2018-12-26T02:18:24.592Z,4.50
2018-12-26T02:19:24.582Z,4.70
2018-12-26T02:20:24.568Z,4.80
2018-12-26T02:21:24.557Z,5.00
2018-12-26T02:22:24.547Z,4.90
2018-12-26T02:23:24.544Z,5.30
2018-12-26T02:24:24.630Z,5.00
2018-12-26T02:25:24.531Z,5.40
2018-12-26T02:26:24.508Z,5.60
2018-12-26T02:27:24.493Z,5.80
2018-12-26T02:28:24.484Z,5.70
2018-12-26T02:29:24.483Z,6.00
2018-12-26T02:30:24.466Z,5.80
2018-12-26T02:31:24.452Z,5.90
2018-12-26T02:32:24.437Z,6.00
2018-12-26T02:33:24.424Z,5.90
2018-12-26T02:34:24.421Z,6.20
2018-12-26T02:35:24.409Z,6.20
2018-12-26T02:36:24.394Z,6.40
2018-12-26T02:37:24.388Z,6.30
2018-12-26T02:38:24.385Z,6.10
2018-12-26T02:39:24.362Z,6.50
2018-12-26T02:40:24.356Z,6.50
2018-12-26T02:41:24.342Z,6.60
2018-12-26T02:42:24.334Z,6.80
2018-12-26T02:43:24.315Z,6.70
2018-12-26T02:44:24.318Z,7.00
2018-12-26T02:45:24.313Z,7.30
2018-12-26T02:46:24.286Z,7.10
2018-12-26T02:47:24.278Z,7.20
2018-12-26T02:48:24.265Z,6.90
2018-12-26T02:49:24.254Z,7.10
2018-12-26T02:50:24.244Z,7.70
2018-12-26T02:51:26.956Z,7.70
2018-12-26T02:52:24.222Z,8.30
2018-12-26T02:53:24.210Z,8.30
2018-12-26T02:54:24.202Z,8.30
2018-12-26T02:55:24.190Z,8.50
2018-12-26T02:56:24.179Z,8.80
2018-12-26T02:57:24.166Z,8.60
2018-12-26T02:58:24.155Z,9.10
2018-12-26T02:59:24.146Z,8.90
2018-12-26T03:00:24.137Z,8.70
2018-12-26T03:01:24.146Z,9.30
2018-12-26T03:02:24.117Z,9.60
2018-12-26T03:03:24.103Z,10.30
2018-12-26T03:04:24.096Z,10.00
2018-12-26T03:05:24.077Z,10.00
2018-12-26T03:06:24.070Z,10.00
2018-12-26T03:07:24.077Z,10.40
2018-12-26T03:08:24.051Z,10.50
2018-12-26T03:09:24.051Z,10.90
2018-12-26T03:10:24.032Z,11.10
2018-12-26T03:11:24.017Z,11.10
2018-12-26T03:12:24.013Z,10.90
2018-12-26T03:13:24.000Z,11.40
2018-12-26T03:14:24.016Z,11.50
2018-12-26T03:15:23.976Z,11.90
2018-12-26T03:16:24.112Z,11.90
2018-12-26T03:17:23.956Z,12.20
2018-12-26T03:18:23.950Z,12.50
2018-12-26T03:19:23.932Z,12.20
2018-12-26T03:20:23.926Z,12.50
2018-12-26T03:21:23.915Z,12.70
2018-12-26T03:22:23.903Z,12.90
2018-12-26T03:23:23.892Z,12.60
2018-12-26T03:24:23.912Z,13.30
2018-12-26T03:25:23.866Z,13.00
2018-12-26T03:26:23.859Z,13.30
2018-12-26T03:27:23.855Z,13.70
2018-12-26T03:28:23.835Z,13.60
2018-12-26T03:29:23.834Z,13.30
2018-12-26T03:30:24.040Z,13.40
2018-12-26T03:31:23.810Z,13.20
2018-12-26T03:32:23.803Z,14.30
2018-12-26T03:33:23.781Z,13.90
2018-12-26T03:34:23.771Z,14.10
2018-12-26T03:35:23.783Z,14.00
2018-12-26T03:36:23.751Z,14.10
2018-12-26T03:37:23.746Z,13.90
2018-12-26T03:38:23.726Z,13.80
2018-12-26T03:39:23.722Z,13.80
2018-12-26T03:40:23.716Z,13.90
2018-12-26T03:41:23.696Z,13.50
2018-12-26T03:42:23.688Z,13.70
2018-12-26T03:43:23.677Z,14.00
2018-12-26T03:44:23.671Z,14.20
2018-12-26T03:45:23.656Z,14.20
2018-12-26T03:46:23.648Z,14.40
2018-12-26T03:47:23.638Z,13.80
2018-12-26T03:48:23.628Z,14.40
2018-12-26T03:49:23.614Z,14.10
2018-12-26T03:50:23.615Z,14.60
2018-12-26T03:51:23.596Z,14.10
2018-12-26T03:52:23.583Z,14.60
2018-12-26T03:53:23.574Z,14.50
2018-12-26T03:54:23.566Z,13.70
2018-12-26T03:55:23.554Z,14.40
2018-12-26T03:56:23.545Z,14.20
2018-12-26T03:57:23.535Z,14.10
2018-12-26T03:58:23.525Z,13.30
2018-12-26T03:59:23.506Z,13.80
2018-12-26T04:00:23.568Z,14.30
2018-12-26T04:01:23.497Z,14.40
2018-12-26T04:02:23.477Z,14.40
2018-12-26T04:03:23.472Z,14.70
2018-12-26T04:04:23.456Z,14.10
2018-12-26T04:05:23.446Z,14.40
2018-12-26T04:06:23.446Z,14.30
2018-12-26T04:07:23.432Z,13.50
2018-12-26T04:08:23.416Z,14.20
2018-12-26T04:09:23.402Z,14.00
2018-12-26T04:10:23.394Z,14.20
2018-12-26T04:11:23.385Z,14.10
2018-12-26T04:12:23.379Z,13.80
2018-12-26T04:13:23.374Z,13.90
2018-12-26T04:14:23.363Z,14.00
2018-12-26T04:15:23.345Z,13.60
2018-12-26T04:16:23.333Z,13.50
2018-12-26T04:17:23.318Z,13.30
2018-12-26T04:18:23.316Z,13.70
2018-12-26T04:19:23.305Z,14.30
2018-12-26T04:20:23.291Z,12.70
2018-12-26T04:21:23.282Z,13.60
2018-12-26T04:22:23.269Z,13.60
2018-12-26T04:23:23.280Z,13.20
2018-12-26T04:24:23.251Z,13.20
2018-12-26T04:25:23.232Z,12.90
2018-12-26T04:26:23.236Z,13.10
2018-12-26T04:27:23.224Z,13.00
2018-12-26T04:28:23.204Z,12.70
2018-12-26T04:29:23.190Z,12.70
2018-12-26T04:30:23.184Z,12.40
2018-12-26T04:31:23.175Z,13.70
2018-12-26T04:32:23.166Z,13.10
2018-12-26T04:33:23.152Z,13.10
2018-12-26T04:34:23.144Z,13.90
2018-12-26T04:35:23.127Z,13.70
2018-12-26T04:36:23.138Z,13.90
2018-12-26T04:37:23.109Z,14.30
2018-12-26T04:38:23.100Z,14.00
2018-12-26T04:39:23.091Z,13.90
2018-12-26T04:40:23.080Z,13.60
2018-12-26T04:41:23.071Z,15.00
2018-12-26T04:42:23.062Z,14.50
2018-12-26T04:43:23.051Z,15.30
2018-12-26T04:44:23.049Z,15.00
2018-12-26T04:45:23.036Z,16.20
2018-12-26T04:46:23.034Z,16.70
2018-12-26T04:47:23.007Z,16.60
2018-12-26T04:48:22.996Z,16.30
2018-12-26T04:49:23.938Z,16.30
2018-12-26T04:50:22.982Z,16.20
2018-12-26T04:51:22.962Z,16.60
2018-12-26T04:52:22.954Z,17.10
2018-12-26T04:53:22.946Z,17.20
2018-12-26T04:54:22.934Z,17.60
2018-12-26T04:55:22.922Z,16.60
2018-12-26T04:56:22.918Z,16.40
2018-12-26T04:57:24.936Z,17.20
2018-12-26T04:58:22.943Z,17.50
2018-12-26T04:59:22.884Z,17.80
2018-12-26T05:00:22.868Z,18.70
2018-12-26T05:01:22.859Z,18.60
2018-12-26T05:02:22.847Z,18.80
2018-12-26T05:03:22.837Z,18.40
2018-12-26T05:04:22.822Z,18.90
2018-12-26T05:05:22.809Z,19.10
2018-12-26T05:06:22.802Z,18.00
2018-12-26T05:07:22.802Z,19.30
2018-12-26T05:08:22.780Z,18.80
2018-12-26T05:09:22.771Z,18.90
2018-12-26T05:10:22.755Z,18.80
2018-12-26T05:11:22.755Z,19.40
2018-12-26T05:12:22.743Z,19.30
2018-12-26T05:13:22.729Z,18.30
2018-12-26T05:14:22.712Z,19.50
2018-12-26T05:15:22.706Z,19.60
2018-12-26T05:16:22.698Z,19.40
2018-12-26T05:17:22.688Z,19.50
2018-12-26T05:18:22.672Z,19.20
2018-12-26T05:19:22.663Z,19.10
2018-12-26T05:20:22.764Z,19.60
2018-12-26T05:21:22.640Z,19.10
2018-12-26T05:22:22.653Z,19.80
2018-12-26T05:23:22.626Z,19.60
2018-12-26T05:24:22.614Z,18.60
2018-12-26T05:25:22.603Z,19.50
2018-12-26T05:26:22.588Z,19.90
2018-12-26T05:27:22.583Z,19.40
2018-12-26T05:28:22.571Z,19.20
2018-12-26T05:29:22.564Z,19.70
2018-12-26T05:30:22.553Z,18.90
2018-12-26T05:31:22.541Z,19.80
2018-12-26T05:32:22.528Z,19.50
2018-12-26T05:33:22.517Z,19.70
2018-12-26T05:34:22.507Z,19.60
2018-12-26T05:35:22.511Z,18.60
2018-12-26T05:36:22.484Z,19.10
2018-12-26T05:37:22.474Z,19.30
2018-12-26T05:38:22.473Z,18.70
2018-12-26T05:39:22.452Z,18.80
2018-12-26T05:40:22.440Z,19.00
2018-12-26T05:41:22.436Z,18.80
2018-12-26T05:42:22.420Z,19.50
2018-12-26T05:43:22.408Z,18.80
2018-12-26T05:44:22.394Z,18.20
2018-12-26T05:45:22.404Z,18.90
2018-12-26T05:46:22.376Z,18.70
2018-12-26T05:47:22.362Z,18.40
2018-12-26T05:48:22.359Z,18.70
2018-12-26T05:49:22.342Z,18.50
2018-12-26T05:50:22.330Z,18.70
2018-12-26T05:51:22.320Z,18.50
2018-12-26T05:52:22.312Z,17.60
2018-12-26T05:53:22.296Z,18.40
2018-12-26T05:54:22.289Z,18.60
2018-12-26T05:55:22.278Z,18.80
2018-12-26T05:56:22.261Z,18.00
2018-12-26T05:57:22.254Z,17.40
2018-12-26T05:58:22.246Z,18.40
2018-12-26T05:59:22.232Z,18.50
2018-12-26T06:00:22.220Z,18.30
2018-12-26T06:01:22.214Z,18.70
2018-12-26T06:02:22.219Z,18.70
2018-12-26T06:03:22.191Z,19.10
2018-12-26T06:04:22.183Z,18.50
2018-12-26T06:05:22.171Z,19.40
2018-12-26T06:06:22.164Z,19.20
2018-12-26T06:07:22.151Z,18.70
2018-12-26T06:08:22.139Z,18.80
2018-12-26T06:09:22.128Z,18.50
2018-12-26T06:10:22.119Z,19.10
2018-12-26T06:11:22.114Z,19.20
2018-12-26T06:12:22.104Z,18.40
2018-12-26T06:13:22.086Z,18.70
2018-12-26T06:14:22.074Z,19.00
2018-12-26T06:15:22.064Z,18.00
2018-12-26T06:16:22.070Z,19.40
2018-12-26T06:17:22.040Z,20.10
2018-12-26T06:18:22.037Z,20.00
2018-12-26T06:19:22.019Z,19.30
2018-12-26T06:20:22.013Z,19.50
2018-12-26T06:21:22.018Z,19.30
2018-12-26T06:22:22.000Z,19.10
2018-12-26T06:23:21.978Z,19.60
2018-12-26T06:24:21.977Z,20.30
2018-12-26T06:25:21.956Z,19.70
2018-12-26T06:26:21.946Z,19.00
2018-12-26T06:27:21.928Z,19.60
2018-12-26T06:28:21.923Z,19.50
2018-12-26T06:29:21.916Z,19.50
2018-12-26T06:30:21.914Z,19.30
2018-12-26T06:31:21.887Z,20.00
2018-12-26T06:32:24.056Z,20.20
2018-12-26T06:33:21.862Z,19.40
2018-12-26T06:34:21.868Z,19.40
2018-12-26T06:35:21.851Z,20.30
2018-12-26T06:36:21.848Z,19.90
2018-12-26T06:37:21.826Z,19.90
2018-12-26T06:38:21.812Z,19.40
2018-12-26T06:39:21.800Z,20.30
2018-12-26T06:40:21.794Z,19.70
2018-12-26T06:41:21.788Z,20.40
2018-12-26T06:42:21.775Z,20.60
2018-12-26T06:43:21.764Z,19.70
2018-12-26T06:44:21.768Z,20.50
2018-12-26T06:45:21.737Z,20.60
2018-12-26T06:46:21.728Z,20.70
2018-12-26T06:47:21.726Z,20.60
2018-12-26T06:48:21.707Z,21.20
2018-12-26T06:49:21.696Z,20.20
2018-12-26T06:50:21.681Z,20.20
2018-12-26T06:51:21.676Z,20.60
2018-12-26T06:52:21.668Z,19.80
2018-12-26T06:53:21.664Z,21.30
2018-12-26T06:54:21.640Z,20.90
2018-12-26T06:55:21.638Z,20.50
2018-12-26T06:56:21.622Z,21.30
2018-12-26T06:57:21.614Z,20.20
2018-12-26T06:58:21.603Z,21.40
2018-12-26T06:59:21.600Z,21.10
2018-12-26T07:00:21.575Z,21.50
2018-12-26T07:01:21.567Z,20.50
2018-12-26T07:02:21.557Z,21.30
2018-12-26T07:03:21.540Z,21.10
2018-12-26T07:04:21.536Z,20.60
2018-12-26T07:05:21.531Z,20.60
2018-12-26T07:06:21.514Z,21.60
2018-12-26T07:07:21.520Z,20.70
2018-12-26T07:08:21.490Z,21.40
2018-12-26T07:09:21.472Z,21.10
2018-12-26T07:10:21.472Z,21.10
2018-12-26T07:11:21.453Z,20.80
2018-12-26T07:12:21.442Z,20.00
2018-12-26T07:13:21.442Z,21.10
2018-12-26T07:14:21.422Z,20.50
2018-12-26T07:15:21.410Z,21.00
2018-12-26T07:16:21.405Z,20.60
2018-12-26T07:17:21.389Z,20.10
2018-12-26T07:18:21.377Z,19.30
2018-12-26T07:19:21.364Z,20.20
2018-12-26T07:20:21.375Z,19.50
2018-12-26T07:21:21.345Z,19.80
2018-12-26T07:22:21.349Z,20.70
2018-12-26T07:23:21.326Z,19.60
2018-12-26T07:24:21.310Z,20.70
2018-12-26T07:25:21.304Z,20.40
2018-12-26T07:26:21.293Z,20.50
2018-12-26T07:27:21.283Z,20.30
2018-12-26T07:28:21.281Z,20.00
2018-12-26T07:29:21.263Z,20.60
2018-12-26T07:30:21.248Z,19.60
2018-12-26T07:31:21.243Z,20.30
2018-12-26T07:32:21.238Z,19.90
2018-12-26T07:33:21.247Z,21.20
2018-12-26T07:34:21.208Z,20.00
2018-12-26T07:35:21.197Z,20.40
2018-12-26T07:36:21.195Z,20.10
2018-12-26T07:37:21.178Z,20.00
2018-12-26T07:38:21.161Z,20.10
2018-12-26T07:39:21.162Z,18.80
2018-12-26T07:40:21.157Z,20.20
2018-12-26T07:41:21.138Z,20.00
2018-12-26T07:42:21.125Z,19.70
2018-12-26T07:43:21.125Z,20.10
2018-12-26T07:44:21.105Z,20.00
2018-12-26T07:45:21.090Z,20.90
2018-12-26T07:46:21.088Z,19.80
2018-12-26T07:47:21.069Z,19.70
2018-12-26T07:48:21.062Z,20.30
2018-12-26T07:49:21.048Z,20.50
2018-12-26T07:50:21.049Z,20.30
2018-12-26T07:51:21.046Z,19.90
2018-12-26T07:52:21.024Z,21.10
2018-12-26T07:53:21.005Z,19.90
2018-12-26T07:54:20.993Z,20.00
2018-12-26T07:55:20.985Z,19.60
2018-12-26T07:56:20.978Z,20.50
2018-12-26T07:57:20.962Z,20.70
2018-12-26T07:58:20.953Z,20.10
2018-12-26T07:59:20.938Z,20.90
2018-12-26T08:00:20.932Z,20.50
2018-12-26T08:01:20.920Z,20.70
2018-12-26T08:02:20.904Z,21.10
2018-12-26T08:03:20.900Z,20.90
2018-12-26T08:04:20.890Z,21.50
2018-12-26T08:05:20.874Z,21.20
2018-12-26T08:06:20.861Z,20.40
2018-12-26T08:07:20.854Z,21.30
2018-12-26T08:08:20.842Z,20.60
2018-12-26T08:09:20.846Z,21.70
2018-12-26T08:10:20.818Z,21.70
2018-12-26T08:11:20.832Z,21.20
2018-12-26T08:12:20.801Z,21.90
2018-12-26T08:13:20.784Z,22.30
2018-12-26T08:14:20.857Z,21.20
2018-12-26T08:15:20.774Z,21.90
2018-12-26T08:16:20.755Z,21.70
2018-12-26T08:17:20.743Z,21.60
2018-12-26T08:18:20.732Z,21.40
2018-12-26T08:19:20.742Z,21.40
2018-12-26T08:20:20.721Z,22.20
2018-12-26T08:21:20.706Z,21.50
2018-12-26T08:22:20.688Z,21.80
2018-12-26T08:23:20.677Z,21.90
2018-12-26T08:24:20.678Z,20.70
2018-12-26T08:25:20.653Z,21.80
2018-12-26T08:26:20.652Z,21.70
2018-12-26T08:27:20.632Z,21.70
2018-12-26T08:28:26.515Z,21.40
2018-12-26T08:29:21.610Z,21.80
2018-12-26T08:30:20.609Z,20.80
2018-12-26T08:31:20.590Z,20.50
2018-12-26T08:32:20.617Z,22.60
2018-12-26T08:33:20.569Z,21.50
2018-12-26T08:34:20.559Z,21.60
2018-12-26T08:35:20.551Z,21.90
2018-12-26T08:36:20.546Z,21.90
2018-12-26T08:37:20.527Z,22.10
2018-12-26T08:38:20.518Z,21.10
2018-12-26T08:39:20.506Z,21.90
2018-12-26T08:40:20.495Z,21.60
2018-12-26T08:41:20.484Z,21.40
2018-12-26T08:42:20.479Z,20.90
2018-12-26T08:43:20.469Z,20.40
2018-12-26T08:44:20.463Z,21.50
2018-12-26T08:45:20.440Z,21.30
2018-12-26T08:46:20.431Z,20.50
2018-12-26T08:47:20.419Z,21.30
2018-12-26T08:48:20.420Z,21.30
2018-12-26T08:49:20.409Z,20.80
2018-12-26T08:50:20.390Z,22.20
2018-12-26T08:51:20.375Z,19.80
2018-12-26T08:52:20.364Z,20.00
2018-12-26T08:53:20.356Z,20.80
2018-12-26T08:54:20.339Z,19.80
2018-12-26T08:55:20.339Z,21.00
2018-12-26T08:56:20.326Z,19.90
2018-12-26T08:57:20.311Z,18.90
2018-12-26T08:58:20.306Z,19.90
2018-12-26T08:59:20.286Z,19.80
2018-12-26T09:00:20.279Z,19.90
2018-12-26T09:01:20.271Z,19.50
2018-12-26T09:02:20.264Z,18.70
2018-12-26T09:03:20.258Z,19.60
2018-12-26T09:04:20.239Z,19.50
2018-12-26T09:05:20.252Z,19.30
2018-12-26T09:06:20.214Z,18.80
2018-12-26T09:07:20.200Z,17.70
2018-12-26T09:08:20.198Z,18.00
2018-12-26T09:09:20.184Z,18.30
2018-12-26T09:10:20.169Z,18.30
2018-12-26T09:11:20.158Z,17.10
2018-12-26T09:12:20.146Z,18.10
2018-12-26T09:13:20.147Z,16.90
2018-12-26T09:14:20.129Z,16.70
2018-12-26T09:15:20.114Z,16.90
2018-12-26T09:16:20.106Z,17.30
2018-12-26T09:17:20.099Z,16.30
2018-12-26T09:18:20.107Z,15.70
2018-12-26T09:19:20.073Z,16.50
2018-12-26T09:20:20.068Z,16.60
2018-12-26T09:21:20.053Z,15.90
2018-12-26T09:22:20.044Z,16.20
2018-12-26T09:23:20.034Z,15.70
2018-12-26T09:24:20.022Z,17.30
2018-12-26T09:25:20.008Z,16.90
2018-12-26T09:26:19.996Z,15.60
2018-12-26T09:27:19.998Z,16.90
2018-12-26T09:28:19.978Z,16.50
2018-12-26T09:29:19.969Z,16.60
2018-12-26T09:30:19.973Z,17.20
2018-12-26T09:31:19.984Z,16.80
2018-12-26T09:32:19.930Z,16.40
2018-12-26T09:33:19.926Z,16.10
2018-12-26T09:34:19.911Z,16.00
2018-12-26T09:35:20.935Z,16.20
2018-12-26T09:36:19.892Z,15.90
2018-12-26T09:37:19.877Z,16.10
2018-12-26T09:38:19.870Z,16.70
2018-12-26T09:39:19.857Z,15.90
2018-12-26T09:40:19.850Z,16.20
2018-12-26T09:41:19.852Z,17.00
2018-12-26T09:42:19.826Z,16.40
2018-12-26T09:43:19.822Z,15.60
2018-12-26T09:44:19.799Z,15.90
2018-12-26T09:45:19.814Z,15.50
2018-12-26T09:46:19.779Z,15.30
2018-12-26T09:47:19.770Z,16.50
2018-12-26T09:48:19.759Z,15.90
2018-12-26T09:49:19.745Z,16.10
2018-12-26T09:50:19.734Z,17.00
2018-12-26T09:51:19.729Z,16.50
2018-12-26T09:52:19.717Z,16.30
2018-12-26T09:53:19.717Z,16.70
2018-12-26T09:54:19.702Z,17.20
2018-12-26T09:55:19.683Z,15.80
2018-12-26T09:56:19.673Z,16.70
2018-12-26T09:57:19.665Z,17.00
2018-12-26T09:58:19.653Z,16.30
2018-12-26T09:59:19.642Z,16.70
2018-12-26T10:00:19.628Z,15.40
2018-12-26T10:01:19.621Z,15.80
2018-12-26T10:02:19.611Z,15.50
2018-12-26T10:03:19.595Z,15.40
2018-12-26T10:04:19.618Z,15.70
2018-12-26T10:05:19.569Z,15.90
2018-12-26T10:06:19.566Z,16.70
2018-12-26T10:07:19.573Z,17.70
2018-12-26T10:08:19.542Z,17.70
2018-12-26T10:09:19.533Z,18.40
2018-12-26T10:10:19.523Z,18.40
2018-12-26T10:11:19.515Z,18.20
2018-12-26T10:12:19.503Z,18.20
2018-12-26T10:13:19.494Z,18.40
2018-12-26T10:14:19.486Z,17.10
2018-12-26T10:15:19.466Z,19.10
2018-12-26T10:16:19.460Z,19.10
2018-12-26T10:17:19.462Z,19.10
2018-12-26T10:18:19.448Z,19.30
2018-12-26T10:19:19.420Z,19.40
2018-12-26T10:20:19.417Z,20.10
2018-12-26T10:21:19.463Z,19.70
2018-12-26T10:22:19.393Z,20.00
2018-12-26T10:23:19.387Z,19.40
2018-12-26T10:24:19.365Z,19.60
2018-12-26T10:25:19.362Z,20.10
2018-12-26T10:26:19.353Z,19.60
2018-12-26T10:27:19.341Z,19.40
2018-12-26T10:28:19.324Z,17.90
2018-12-26T10:29:19.319Z,19.40
2018-12-26T10:30:19.323Z,19.40
2018-12-26T10:31:19.299Z,20.70
2018-12-26T10:32:19.292Z,20.10
2018-12-26T10:33:19.273Z,20.30
2018-12-26T10:34:19.263Z,21.00
2018-12-26T10:35:19.261Z,20.70
2018-12-26T10:36:19.239Z,19.90
2018-12-26T10:37:19.233Z,20.50
2018-12-26T10:38:19.219Z,21.00
2018-12-26T10:39:19.208Z,19.70
2018-12-26T10:40:19.213Z,20.30
2018-12-26T10:41:19.187Z,20.80
2018-12-26T10:42:19.173Z,20.40
2018-12-26T10:43:19.162Z,20.70
2018-12-26T10:44:19.159Z,20.20
2018-12-26T10:45:19.158Z,19.20
2018-12-26T10:46:19.135Z,19.70
2018-12-26T10:47:19.121Z,19.40
2018-12-26T10:48:19.116Z,19.90
2018-12-26T10:49:19.099Z,19.20
2018-12-26T10:50:19.089Z,20.30
2018-12-26T10:51:19.088Z,20.10
2018-12-26T10:52:19.084Z,20.20
2018-12-26T10:53:19.058Z,19.50
2018-12-26T10:54:19.042Z,20.60
2018-12-26T10:55:19.043Z,20.50
2018-12-26T10:56:19.027Z,19.30
2018-12-26T10:57:19.029Z,20.40
2018-12-26T10:58:19.009Z,18.90
2018-12-26T10:59:19.006Z,19.70
2018-12-26T11:00:18.982Z,19.90
2018-12-26T11:01:18.974Z,20.20
2018-12-26T11:02:18.959Z,19.90
2018-12-26T11:03:18.977Z,20.30
2018-12-26T11:04:18.935Z,19.60
2018-12-26T11:05:18.936Z,20.10
2018-12-26T11:06:18.930Z,20.50
2018-12-26T11:07:18.908Z,19.90
2018-12-26T11:08:18.911Z,20.30
2018-12-26T11:09:18.891Z,20.10
2018-12-26T11:10:18.882Z,20.40
2018-12-26T11:11:18.876Z,20.10
2018-12-26T11:12:18.855Z,19.50
2018-12-26T11:13:18.839Z,19.20
2018-12-26T11:14:18.831Z,18.80
2018-12-26T11:15:18.820Z,19.30
2018-12-26T11:16:18.829Z,19.50
2018-12-26T11:17:18.795Z,18.90
2018-12-26T11:18:18.791Z,19.30
2018-12-26T11:19:18.773Z,17.80
2018-12-26T11:20:18.767Z,18.10
2018-12-26T11:21:18.771Z,18.20
2018-12-26T11:22:18.761Z,18.50
2018-12-26T11:23:18.735Z,17.20
2018-12-26T11:24:18.747Z,17.20
2018-12-26T11:25:18.714Z,17.40
2018-12-26T11:26:18.705Z,17.20
2018-12-26T11:27:18.696Z,16.40
2018-12-26T11:28:18.679Z,16.70
2018-12-26T11:29:19.058Z,17.70
2018-12-26T11:30:18.657Z,16.70
2018-12-26T11:31:18.649Z,16.80
2018-12-26T11:32:18.641Z,16.10
2018-12-26T11:33:18.631Z,17.10
2018-12-26T11:34:18.626Z,16.40
2018-12-26T11:35:18.600Z,15.70
2018-12-26T11:36:18.594Z,16.40
2018-12-26T11:37:18.698Z,16.60
2018-12-26T11:38:18.571Z,16.00
2018-12-26T11:39:18.589Z,15.20
2018-12-26T11:40:18.569Z,15.90
2018-12-26T11:41:18.542Z,16.40
2018-12-26T11:42:18.530Z,15.90
2018-12-26T11:43:18.518Z,15.90
2018-12-26T11:44:18.520Z,16.10
2018-12-26T11:45:18.502Z,17.10
2018-12-26T11:46:18.492Z,16.60
2018-12-26T11:47:18.478Z,16.20
2018-12-26T11:48:18.460Z,16.30
2018-12-26T11:49:18.465Z,15.90
2018-12-26T11:50:18.451Z,16.20
2018-12-26T11:51:18.449Z,16.50
2018-12-26T11:52:18.440Z,16.10
2018-12-26T11:53:18.413Z,16.50
2018-12-26T11:54:18.402Z,16.00
2018-12-26T11:55:18.395Z,16.40
2018-12-26T11:56:18.382Z,15.30
2018-12-26T11:57:18.374Z,15.40
2018-12-26T11:58:18.370Z,16.00
2018-12-26T11:59:18.354Z,15.60
2018-12-26T12:00:18.336Z,15.90
2018-12-26T12:01:18.322Z,16.50
2018-12-26T12:02:20.715Z,15.60
2018-12-26T12:03:18.312Z,15.80
2018-12-26T12:04:18.294Z,15.50
2018-12-26T12:05:18.310Z,16.50
2018-12-26T12:06:18.272Z,15.10
2018-12-26T12:07:18.264Z,16.20
2018-12-26T12:08:18.251Z,16.20
2018-12-26T12:09:18.253Z,16.80
2018-12-26T12:10:18.247Z,16.20
2018-12-26T12:11:18.218Z,16.40
2018-12-26T12:12:18.209Z,16.70
2018-12-26T12:13:18.208Z,16.40
2018-12-26T12:14:18.188Z,16.50
2018-12-26T12:15:18.182Z,16.90
2018-12-26T12:16:18.168Z,16.60
2018-12-26T12:17:18.158Z,16.60
2018-12-26T12:18:18.144Z,16.40
2018-12-26T12:19:18.144Z,16.80
2018-12-26T12:20:18.124Z,17.00
2018-12-26T12:21:18.118Z,17.20
2018-12-26T12:22:18.099Z,17.20
2018-12-26T12:23:18.089Z,17.40
2018-12-26T12:24:18.134Z,16.30
2018-12-26T12:25:18.098Z,16.90
2018-12-26T12:26:18.065Z,16.70
2018-12-26T12:27:18.056Z,17.60
2018-12-26T12:28:18.076Z,17.10
2018-12-26T12:29:18.029Z,17.50
2018-12-26T12:30:18.016Z,17.80
2018-12-26T12:31:18.006Z,17.40
2018-12-26T12:32:17.996Z,18.30
2018-12-26T12:33:17.992Z,17.90
2018-12-26T12:34:17.970Z,17.90
2018-12-26T12:35:17.975Z,17.90
2018-12-26T12:36:17.950Z,18.20
2018-12-26T12:37:17.956Z,18.40
2018-12-26T12:38:17.944Z,19.10
2018-12-26T12:39:17.920Z,19.10
2018-12-26T12:40:17.906Z,18.90
2018-12-26T12:41:17.901Z,19.00
2018-12-26T12:42:17.894Z,18.40
2018-12-26T12:43:17.872Z,18.60
2018-12-26T12:44:17.872Z,19.60
2018-12-26T12:45:17.853Z,21.20
2018-12-26T12:46:17.838Z,20.20
2018-12-26T12:47:17.830Z,20.30
2018-12-26T12:48:17.816Z,19.80
2018-12-26T12:49:17.806Z,20.40
2018-12-26T12:50:17.798Z,19.80
2018-12-26T12:51:17.816Z,21.00
2018-12-26T12:52:17.774Z,20.30
2018-12-26T12:53:17.764Z,21.00
2018-12-26T12:54:17.760Z,21.70
2018-12-26T12:55:17.749Z,21.20
2018-12-26T12:56:17.740Z,21.00
2018-12-26T12:57:17.726Z,20.30
2018-12-26T12:58:17.711Z,20.70